Impacts TAF Board
For situational awareness. Not to be used for flight planning purposes.
IDs:

KEAT - Wenatchee/Pangborn M, WA, US

Issued at 0621 UTC 22 Oct 2021
Updated at 0715 UTC 22 Oct 2021
Potential Impact None Slight Moderate High
Time0655Z 22/08Z 22/09Z 22/10Z 22/11Z 22/12Z 22/13Z 22/14Z 22/15Z 22/16Z 22/17Z 22/18Z 22/19Z 22/20Z>>
Type OBS PRVL PRVL PRVL PRVL PRVL PRVL PRVL PRVL PRVL PRVL PRVL PRVL PRVL
VIS 10 >6 >6 >6 >6 6 6 6 6 5 5 5 5 5
CIG 75 80 80 50 50 25 25 25 25 15 15 15 15 15
Cover OVC OVC OVC OVC OVC OVC OVC OVC OVC OVC OVC OVC OVC OVC
FltCat VFR VFR VFR VFR VFR MVFR MVFR MVFR MVFR MVFR MVFR MVFR MVFR MVFR
WX -RA -RA -RA -RA -RA -RA BR -RA BR -RA BR -RA BR -RA BR -RA BR -RA BR -RA BR -RA BR
WDir 310 VRB VRB 300 300 290 290 290 290 VRB VRB VRB VRB VRB
WSpd 9 4 4 5 5 5 5 5 5 3 3 3 3 3
WGst -- -- -- -- -- -- -- -- -- -- -- -- -- --
Raw TAF
KEAT 220621Z 2206/2306 VRB04KT P6SM -RA FEW060 OVC080
  FM221000 30005KT P6SM -RA SCT035 OVC050
  FM221200 29005KT 6SM -RA BR SCT003 OVC025
  FM221600 VRB03KT 5SM -RA BR OVC015
  FM222100 25006KT P6SM VCSH BKN030
  FM230100 31006KT P6SM OVC050


Raw METAR
KEAT 220655Z AUTO 31009KT 10SM -RA OVC075 11/07 A2977 RMK AO2 RAE03B22 SLP082 P0001 T01110072
KEAT 220555Z AUTO 29007KT 10SM -RA FEW060 OVC085 12/07 A2978 RMK AO2 SLP084 P0001 60001 T01170067 10150 20117 56025
KEAT 220455Z AUTO 27005KT 10SM -RA FEW060 FEW070 OVC090 12/06 A2980 RMK AO2 RAB47 SLP092 P0000 T01220061

METAR Board
Radar Display
Forecast Discussion
For situational awareness. Not to be used for flight planning purposes.